sensor_id;sensor_type;location;lat;lon;timestamp;pressure;altitude;pressure_sealevel;temperature;humidity
39435;BME280;30098;51.880;-0.518;2022-09-20T00:01:11;101594.78;;;19.97;40.48
39435;BME280;30098;51.880;-0.518;2022-09-20T00:03:40;101592.34;;;19.96;40.56
39435;BME280;30098;51.880;-0.518;2022-09-20T00:06:07;101589.88;;;19.94;40.57
39435;BME280;30098;51.880;-0.518;2022-09-20T00:08:34;101598.63;;;19.96;40.39
39435;BME280;30098;51.880;-0.518;2022-09-20T00:11:04;101592.13;;;19.92;40.59
39435;BME280;30098;51.880;-0.518;2022-09-20T00:13:31;101590.72;;;19.95;40.36
39435;BME280;30098;51.880;-0.518;2022-09-20T00:15:57;101519.16;;;19.53;40.45
39435;BME280;30098;51.880;-0.518;2022-09-20T00:18:23;101589.09;;;19.94;40.53
39435;BME280;30098;51.880;-0.518;2022-09-20T00:20:49;101589.66;;;19.91;40.53
39435;BME280;30098;51.880;-0.518;2022-09-20T00:23:16;101587.50;;;19.88;40.52
39435;BME280;30098;51.880;-0.518;2022-09-20T00:25:42;101597.59;;;19.92;40.53
39435;BME280;30098;51.880;-0.518;2022-09-20T00:28:09;101598.69;;;19.91;40.45
39435;BME280;30098;51.880;-0.518;2022-09-20T00:30:35;101601.44;;;19.91;40.59
39435;BME280;30098;51.880;-0.518;2022-09-20T00:33:01;101608.53;;;19.92;40.48
39435;BME280;30098;51.880;-0.518;2022-09-20T00:35:27;101606.91;;;19.91;40.59
39435;BME280;30098;51.880;-0.518;2022-09-20T00:37:54;101613.47;;;19.90;40.56
39435;BME280;30098;51.880;-0.518;2022-09-20T00:40:21;101613.47;;;19.90;40.58
39435;BME280;30098;51.880;-0.518;2022-09-20T00:42:47;101613.47;;;19.90;40.56
39435;BME280;30098;51.880;-0.518;2022-09-20T00:45:24;101614.56;;;19.89;40.58
39435;BME280;30098;51.880;-0.518;2022-09-20T00:48:04;101481.59;;;19.05;40.69
39435;BME280;30098;51.880;-0.518;2022-09-20T00:50:36;101593.09;;;19.72;40.62
39435;BME280;30098;51.880;-0.518;2022-09-20T00:53:15;101621.13;;;19.88;40.48
39435;BME280;30098;51.880;-0.518;2022-09-20T00:55:46;101618.41;;;19.88;40.54
39435;BME280;30098;51.880;-0.518;2022-09-20T00:58:14;101621.13;;;19.88;40.54
39435;BME280;30098;51.880;-0.518;2022-09-20T01:00:42;101626.34;;;19.84;40.50
39435;BME280;30098;51.880;-0.518;2022-09-20T01:03:09;101625.78;;;19.88;40.39
39435;BME280;30098;51.880;-0.518;2022-09-20T01:05:37;101618.72;;;19.81;40.58
39435;BME280;30098;51.880;-0.518;2022-09-20T01:08:04;101628.81;;;19.86;40.49
39435;BME280;30098;51.880;-0.518;2022-09-20T01:10:31;101638.13;;;19.85;40.58
39435;BME280;30098;51.880;-0.518;2022-09-20T01:12:56;101527.91;;;19.20;40.67
39435;BME280;30098;51.880;-0.518;2022-09-20T01:15:23;101637.28;;;19.84;40.56
39435;BME280;30098;51.880;-0.518;2022-09-20T01:17:53;101642.75;;;19.84;40.60
39435;BME280;30098;51.880;-0.518;2022-09-20T01:20:34;101633.75;;;19.84;40.56
39435;BME280;30098;51.880;-0.518;2022-09-20T01:23:15;101528.75;;;19.16;40.50
39435;BME280;30098;51.880;-0.518;2022-09-20T01:26:04;101639.22;;;19.84;40.67
39435;BME280;30098;51.880;-0.518;2022-09-20T01:28:31;101634.81;;;19.83;40.48
39435;BME280;30098;51.880;-0.518;2022-09-20T01:33:58;101623.09;;;19.82;40.80
39435;BME280;30098;51.880;-0.518;2022-09-20T01:36:48;101621.72;;;19.80;40.63
39435;BME280;30098;51.880;-0.518;2022-09-20T01:39:40;101626.91;;;19.81;40.55
39435;BME280;30098;51.880;-0.518;2022-09-20T01:42:09;101632.66;;;19.80;40.53
39435;BME280;30098;51.880;-0.518;2022-09-20T01:44:48;101635.38;;;19.80;40.52
39435;BME280;30098;51.880;-0.518;2022-09-20T01:56:32;101625.31;;;19.75;40.58
39435;BME280;30098;51.880;-0.518;2022-09-20T02:05:09;101641.72;;;19.75;40.65
39435;BME280;30098;51.880;-0.518;2022-09-20T02:10:12;101637.38;;;19.74;40.56
39435;BME280;30098;51.880;-0.518;2022-09-20T02:24:24;101601.66;;;19.60;40.59
39435;BME280;30098;51.880;-0.518;2022-09-20T02:27:07;101628.94;;;19.71;40.46
39435;BME280;30098;51.880;-0.518;2022-09-20T02:35:04;101626.44;;;19.69;40.74
39435;BME280;30098;51.880;-0.518;2022-09-20T02:43:33;101631.13;;;19.68;40.37
39435;BME280;30098;51.880;-0.518;2022-09-20T02:46:16;101623.72;;;19.69;40.43
39435;BME280;30098;51.880;-0.518;2022-09-20T02:51:45;101619.66;;;19.66;40.51
39435;BME280;30098;51.880;-0.518;2022-09-20T02:54:47;101617.75;;;19.67;40.39
39435;BME280;30098;51.880;-0.518;2022-09-20T03:00:26;101620.75;;;19.65;40.53
39435;BME280;30098;51.880;-0.518;2022-09-20T03:03:19;101616.09;;;19.66;40.42
39435;BME280;30098;51.880;-0.518;2022-09-20T03:06:22;101619.94;;;19.65;40.37
39435;BME280;30098;51.880;-0.518;2022-09-20T03:11:59;101612.03;;;19.63;40.36
39435;BME280;30098;51.880;-0.518;2022-09-20T03:14:31;101605.19;;;19.61;40.52
39435;BME280;30098;51.880;-0.518;2022-09-20T03:17:01;101613.13;;;19.62;40.43
39435;BME280;30098;51.880;-0.518;2022-09-20T03:19:45;101616.44;;;19.59;40.44
39435;BME280;30098;51.880;-0.518;2022-09-20T03:23:00;101616.97;;;19.61;40.45
39435;BME280;30098;51.880;-0.518;2022-09-20T03:28:31;101618.06;;;19.60;40.37
39435;BME280;30098;51.880;-0.518;2022-09-20T03:31:23;101629.00;;;19.60;40.43
39435;BME280;30098;51.880;-0.518;2022-09-20T03:42:28;101617.53;;;19.58;40.35
39435;BME280;30098;51.880;-0.518;2022-09-20T03:53:20;101608.81;;;19.56;40.31
39435;BME280;30098;51.880;-0.518;2022-09-20T03:58:36;101604.44;;;19.55;40.33
39435;BME280;30098;51.880;-0.518;2022-09-20T04:01:24;101515.56;;;18.94;40.29
39435;BME280;30098;51.880;-0.518;2022-09-20T04:04:10;101615.38;;;19.55;40.39
39435;BME280;30098;51.880;-0.518;2022-09-20T04:12:24;101616.47;;;19.54;40.22
39435;BME280;30098;51.880;-0.518;2022-09-20T04:15:15;101607.44;;;19.53;40.48
39435;BME280;30098;51.880;-0.518;2022-09-20T04:20:39;101616.75;;;19.52;40.35
39435;BME280;30098;51.880;-0.518;2022-09-20T04:25:53;101614.03;;;19.52;40.23
39435;BME280;30098;51.880;-0.518;2022-09-20T04:31:29;101616.53;;;19.49;40.36
39435;BME280;30098;51.880;-0.518;2022-09-20T04:33:58;101606.09;;;19.51;40.26
39435;BME280;30098;51.880;-0.518;2022-09-20T04:36:36;101613.25;;;19.47;40.20
39435;BME280;30098;51.880;-0.518;2022-09-20T04:44:58;101613.50;;;19.50;40.32
39435;BME280;30098;51.880;-0.518;2022-09-20T04:56:43;101601.22;;;19.48;40.26
39435;BME280;30098;51.880;-0.518;2022-09-20T04:59:06;101596.56;;;19.48;40.15
39435;BME280;30098;51.880;-0.518;2022-09-20T05:02:15;101596.84;;;19.47;40.18
39435;BME280;30098;51.880;-0.518;2022-09-20T05:08:14;101600.69;;;19.46;40.13
39435;BME280;30098;51.880;-0.518;2022-09-20T05:21:46;101604.50;;;19.45;40.18
39435;BME280;30098;51.880;-0.518;2022-09-20T05:29:50;101605.59;;;19.44;40.10
39435;BME280;30098;51.880;-0.518;2022-09-20T05:35:05;101513.16;;;18.77;40.24
39435;BME280;30098;51.880;-0.518;2022-09-20T05:38:09;101607.53;;;19.43;40.04
39435;BME280;30098;51.880;-0.518;2022-09-20T05:43:33;101616.53;;;19.44;40.29
39435;BME280;30098;51.880;-0.518;2022-09-20T05:46:34;101600.78;;;19.30;40.17
39435;BME280;30098;51.880;-0.518;2022-09-20T05:58:04;101538.50;;;18.82;39.92
39435;BME280;30098;51.880;-0.518;2022-09-20T06:00:44;101594.28;;;19.21;40.02
39435;BME280;30098;51.880;-0.518;2022-09-20T06:11:47;101638.97;;;19.41;39.95
39435;BME280;30098;51.880;-0.518;2022-09-20T06:22:23;101652.91;;;19.39;39.91
39435;BME280;30098;51.880;-0.518;2022-09-20T06:27:46;101653.75;;;19.40;40.03
39435;BME280;30098;51.880;-0.518;2022-09-20T06:30:19;101642.59;;;19.31;40.10
39435;BME280;30098;51.880;-0.518;2022-09-20T06:33:25;101650.19;;;19.39;39.94
39435;BME280;30098;51.880;-0.518;2022-09-20T06:38:40;101659.50;;;19.38;40.08
39435;BME280;30098;51.880;-0.518;2022-09-20T06:41:30;101663.31;;;19.37;40.03
39435;BME280;30098;51.880;-0.518;2022-09-20T06:43:59;101640.16;;;19.24;39.99
39435;BME280;30098;51.880;-0.518;2022-09-20T06:46:30;101669.59;;;19.38;39.89
39435;BME280;30098;51.880;-0.518;2022-09-20T06:48:56;101652.16;;;19.28;39.90
39435;BME280;30098;51.880;-0.518;2022-09-20T06:51:23;101663.59;;;19.35;39.94
39435;BME280;30098;51.880;-0.518;2022-09-20T06:53:51;101660.84;;;19.35;39.98
39435;BME280;30098;51.880;-0.518;2022-09-20T06:56:19;101642.63;;;19.26;39.98
39435;BME280;30098;51.880;-0.518;2022-09-20T06:58:47;101667.16;;;19.36;40.09
39435;BME280;30098;51.880;-0.518;2022-09-20T07:01:12;101656.22;;;19.36;40.00
39435;BME280;30098;51.880;-0.518;2022-09-20T07:03:41;101664.72;;;19.34;40.00
39435;BME280;30098;51.880;-0.518;2022-09-20T07:06:07;101667.72;;;19.33;40.02
39435;BME280;30098;51.880;-0.518;2022-09-20T07:08:33;101676.44;;;19.35;39.93
39435;BME280;30098;51.880;-0.518;2022-09-20T07:11:07;101678.38;;;19.34;40.01
39435;BME280;30098;51.880;-0.518;2022-09-20T07:13:35;101675.66;;;19.34;39.91
39435;BME280;30098;51.880;-0.518;2022-09-20T07:16:06;101676.44;;;19.35;39.91
39435;BME280;30098;51.880;-0.518;2022-09-20T07:18:33;101676.44;;;19.35;39.94
39435;BME280;30098;51.880;-0.518;2022-09-20T07:20:59;101688.47;;;19.34;40.14
39435;BME280;30098;51.880;-0.518;2022-09-20T07:23:29;101675.91;;;19.33;40.39
39435;BME280;30098;51.880;-0.518;2022-09-20T07:25:55;101682.47;;;19.32;40.23
39435;BME280;30098;51.880;-0.518;2022-09-20T07:28:26;101670.72;;;19.31;40.58
39435;BME280;30098;51.880;-0.518;2022-09-20T07:30:51;101677.84;;;19.32;40.40
39435;BME280;30098;51.880;-0.518;2022-09-20T07:33:17;101676.75;;;19.33;40.52
39435;BME280;30098;51.880;-0.518;2022-09-20T07:35:48;101685.44;;;19.35;40.32
39435;BME280;30098;51.880;-0.518;2022-09-20T07:38:14;101684.34;;;19.36;40.43
39435;BME280;30098;51.880;-0.518;2022-09-20T07:40:42;101672.13;;;19.29;40.42
39435;BME280;30098;51.880;-0.518;2022-09-20T07:43:08;101687.63;;;19.39;40.54
39435;BME280;30098;51.880;-0.518;2022-09-20T07:45:35;101692.81;;;19.40;40.73
39435;BME280;30098;51.880;-0.518;2022-09-20T07:48:06;101691.72;;;19.41;40.87
39435;BME280;30098;51.880;-0.518;2022-09-20T07:50:33;101669.94;;;19.26;40.98
39435;BME280;30098;51.880;-0.518;2022-09-20T07:52:59;101690.31;;;19.44;40.94
39435;BME280;30098;51.880;-0.518;2022-09-20T07:55:25;101690.06;;;19.45;40.90
39435;BME280;30098;51.880;-0.518;2022-09-20T07:57:50;101693.59;;;19.46;41.00
39435;BME280;30098;51.880;-0.518;2022-09-20T08:00:16;101692.50;;;19.47;40.69
39435;BME280;30098;51.880;-0.518;2022-09-20T08:02:42;101697.69;;;19.48;41.00
39435;BME280;30098;51.880;-0.518;2022-09-20T08:05:10;101692.16;;;19.53;41.65
39435;BME280;30098;51.880;-0.518;2022-09-20T08:07:35;101660.31;;;19.39;41.32
39435;BME280;30098;51.880;-0.518;2022-09-20T08:10:01;101683.66;;;19.60;41.45
39435;BME280;30098;51.880;-0.518;2022-09-20T08:12:27;101680.09;;;19.65;41.20
39435;BME280;30098;51.880;-0.518;2022-09-20T08:14:52;101684.16;;;19.67;41.87
39435;BME280;30098;51.880;-0.518;2022-09-20T08:17:18;101682.47;;;19.72;42.71
39435;BME280;30098;51.880;-0.518;2022-09-20T08:19:44;101680.00;;;19.75;42.78
39435;BME280;30098;51.880;-0.518;2022-09-20T08:22:09;101684.59;;;19.80;42.61
39435;BME280;30098;51.880;-0.518;2022-09-20T08:24:37;101690.63;;;19.82;42.64
39435;BME280;30098;51.880;-0.518;2022-09-20T08:27:02;101700.72;;;19.87;42.28
39435;BME280;30098;51.880;-0.518;2022-09-20T08:29:29;101684.09;;;19.78;42.20
39435;BME280;30098;51.880;-0.518;2022-09-20T08:31:54;101713.81;;;19.95;41.98
39435;BME280;30098;51.880;-0.518;2022-09-20T08:34:24;101714.03;;;19.98;42.38
39435;BME280;30098;51.880;-0.518;2022-09-20T08:36:49;101714.28;;;20.02;42.23
39435;BME280;30098;51.880;-0.518;2022-09-20T08:39:17;101716.69;;;20.09;42.11
39435;BME280;30098;51.880;-0.518;2022-09-20T08:42:08;101631.19;;;19.58;41.87
39435;BME280;30098;51.880;-0.518;2022-09-20T08:44:47;101708.16;;;20.15;41.70
39435;BME280;30098;51.880;-0.518;2022-09-20T08:47:47;101712.47;;;20.22;42.08
39435;BME280;30098;51.880;-0.518;2022-09-20T08:50:14;101712.41;;;20.27;42.05
39435;BME280;30098;51.880;-0.518;2022-09-20T08:52:44;101718.13;;;20.30;41.99
39435;BME280;30098;51.880;-0.518;2022-09-20T08:55:20;101703.94;;;20.28;42.10
39435;BME280;30098;51.880;-0.518;2022-09-20T08:57:49;101720.78;;;20.41;41.91
39435;BME280;30098;51.880;-0.518;2022-09-20T09:00:17;101715.84;;;20.43;42.10
39435;BME280;30098;51.880;-0.518;2022-09-20T09:02:43;101717.72;;;20.47;41.70
39435;BME280;30098;51.880;-0.518;2022-09-20T09:05:27;101719.59;;;20.52;41.55
39435;BME280;30098;51.880;-0.518;2022-09-20T09:07:52;101714.34;;;20.56;41.69
39435;BME280;30098;51.880;-0.518;2022-09-20T09:10:19;101711.84;;;20.59;41.28
39435;BME280;30098;51.880;-0.518;2022-09-20T09:12:44;101699.06;;;20.50;41.76
39435;BME280;30098;51.880;-0.518;2022-09-20T09:15:24;101711.41;;;20.71;41.31
39435;BME280;30098;51.880;-0.518;2022-09-20T09:17:53;101715.25;;;20.75;41.77
39435;BME280;30098;51.880;-0.518;2022-09-20T09:20:21;101706.44;;;20.78;41.58
39435;BME280;30098;51.880;-0.518;2022-09-20T09:22:57;101704.78;;;20.83;41.44
39435;BME280;30098;51.880;-0.518;2022-09-20T09:25:38;101708.31;;;20.83;41.29
39435;BME280;30098;51.880;-0.518;2022-09-20T09:30:38;101719.50;;;20.87;41.68
39435;BME280;30098;51.880;-0.518;2022-09-20T09:36:06;101732.31;;;20.91;41.49
39435;BME280;30098;51.880;-0.518;2022-09-20T09:38:37;101727.38;;;20.93;41.81
39435;BME280;30098;51.880;-0.518;2022-09-20T09:41:05;101723.22;;;20.96;41.22
39435;BME280;30098;51.880;-0.518;2022-09-20T09:43:35;101728.72;;;20.96;41.33
39435;BME280;30098;51.880;-0.518;2022-09-20T09:46:18;101646.25;;;20.49;41.43
39435;BME280;30098;51.880;-0.518;2022-09-20T09:48:46;101715.31;;;20.94;41.24
39435;BME280;30098;51.880;-0.518;2022-09-20T09:51:19;101722.88;;;21.03;41.14
39435;BME280;30098;51.880;-0.518;2022-09-20T09:53:46;101701.66;;;20.89;41.24
39435;BME280;30098;51.880;-0.518;2022-09-20T10:04:47;101721.28;;;21.21;41.34
39435;BME280;30098;51.880;-0.518;2022-09-20T10:13:25;101714.56;;;21.32;41.11
39435;BME280;30098;51.880;-0.518;2022-09-20T10:18:51;101713.09;;;21.40;40.94
39435;BME280;30098;51.880;-0.518;2022-09-20T10:21:35;101712.47;;;21.43;40.99
39435;BME280;30098;51.880;-0.518;2022-09-20T10:24:16;101713.53;;;21.47;40.93
39435;BME280;30098;51.880;-0.518;2022-09-20T10:27:00;101707.75;;;21.49;40.69
39435;BME280;30098;51.880;-0.518;2022-09-20T10:32:08;101706.03;;;21.53;40.70
39435;BME280;30098;51.880;-0.518;2022-09-20T10:35:03;101703.81;;;21.55;40.68
39435;BME280;30098;51.880;-0.518;2022-09-20T10:56:50;101694.34;;;21.66;41.13
39435;BME280;30098;51.880;-0.518;2022-09-20T11:05:13;101685.44;;;21.74;41.03
39435;BME280;30098;51.880;-0.518;2022-09-20T11:10:20;101687.81;;;21.81;40.75
39435;BME280;30098;51.880;-0.518;2022-09-20T11:12:54;101689.13;;;21.84;40.45
39435;BME280;30098;51.880;-0.518;2022-09-20T11:15:23;101614.69;;;21.38;40.50
39435;BME280;30098;51.880;-0.518;2022-09-20T11:20:52;101681.44;;;21.86;40.56
39435;BME280;30098;51.880;-0.518;2022-09-20T11:23:31;101673.00;;;21.82;40.47
39435;BME280;30098;51.880;-0.518;2022-09-20T11:26:30;101684.69;;;21.88;40.50
39435;BME280;30098;51.880;-0.518;2022-09-20T11:29:04;101685.81;;;21.87;40.64
39435;BME280;30098;51.880;-0.518;2022-09-20T11:31:39;101675.31;;;21.89;40.75
39435;BME280;30098;51.880;-0.518;2022-09-20T11:41:55;101606.91;;;21.46;40.88
39435;BME280;30098;51.880;-0.518;2022-09-20T11:44:24;101683.19;;;21.96;40.83
39435;BME280;30098;51.880;-0.518;2022-09-20T11:47:08;101677.19;;;21.94;40.77
39435;BME280;30098;51.880;-0.518;2022-09-20T11:52:45;101684.34;;;22.09;40.64
39435;BME280;30098;51.880;-0.518;2022-09-20T11:55:52;101677.97;;;22.13;40.76
39435;BME280;30098;51.880;-0.518;2022-09-20T11:58:18;101675.44;;;22.17;40.55
39435;BME280;30098;51.880;-0.518;2022-09-20T12:00:48;101660.88;;;22.16;40.21
39435;BME280;30098;51.880;-0.518;2022-09-20T12:03:40;101678.38;;;22.20;40.14
39435;BME280;30098;51.880;-0.518;2022-09-20T12:06:25;101658.22;;;22.11;40.29
39435;BME280;30098;51.880;-0.518;2022-09-20T12:08:52;101591.16;;;21.70;40.18
39435;BME280;30098;51.880;-0.518;2022-09-20T12:11:28;101673.00;;;22.29;40.41
39435;BME280;30098;51.880;-0.518;2022-09-20T12:14:27;101675.13;;;22.32;40.64
39435;BME280;30098;51.880;-0.518;2022-09-20T12:16:53;101678.38;;;22.34;40.17
39435;BME280;30098;51.880;-0.518;2022-09-20T12:26:50;101679.44;;;22.39;40.23
39435;BME280;30098;51.880;-0.518;2022-09-20T12:31:52;101675.56;;;22.40;40.46
39435;BME280;30098;51.880;-0.518;2022-09-20T12:42:01;101664.78;;;22.43;40.63
39435;BME280;30098;51.880;-0.518;2022-09-20T12:47:17;101666.41;;;22.44;40.80
39435;BME280;30098;51.880;-0.518;2022-09-20T12:57:54;101674.84;;;22.48;40.55
39435;BME280;30098;51.880;-0.518;2022-09-20T13:08:26;101670.72;;;22.50;40.64
39435;BME280;30098;51.880;-0.518;2022-09-20T13:11:00;101661.34;;;22.51;40.93
39435;BME280;30098;51.880;-0.518;2022-09-20T13:16:25;101666.03;;;22.51;41.02
39435;BME280;30098;51.880;-0.518;2022-09-20T13:21:36;101569.16;;;21.89;41.37
39435;BME280;30098;51.880;-0.518;2022-09-20T13:24:02;101630.06;;;22.33;41.31
39435;BME280;30098;51.880;-0.518;2022-09-20T13:26:34;101659.94;;;22.54;41.36
39435;BME280;30098;51.880;-0.518;2022-09-20T13:29:02;101660.44;;;22.56;41.26
39435;BME280;30098;51.880;-0.518;2022-09-20T13:31:32;101653.50;;;22.59;40.70
39435;BME280;30098;51.880;-0.518;2022-09-20T13:34:31;101660.34;;;22.61;40.42
39435;BME280;30098;51.880;-0.518;2022-09-20T13:36:57;101643.16;;;22.56;40.12
39435;BME280;30098;51.880;-0.518;2022-09-20T13:39:32;101663.59;;;22.63;39.45
39435;BME280;30098;51.880;-0.518;2022-09-20T13:42:01;101661.16;;;22.62;39.69
39435;BME280;30098;51.880;-0.518;2022-09-20T13:44:31;101661.94;;;22.62;38.92
39435;BME280;30098;51.880;-0.518;2022-09-20T13:46:59;101659.50;;;22.61;38.72
39435;BME280;30098;51.880;-0.518;2022-09-20T13:49:30;101651.50;;;22.50;39.23
39435;BME280;30098;51.880;-0.518;2022-09-20T13:51:56;101576.50;;;22.08;39.13
39435;BME280;30098;51.880;-0.518;2022-09-20T13:54:30;101658.91;;;22.64;38.69
39435;BME280;30098;51.880;-0.518;2022-09-20T13:57:05;101661.66;;;22.64;38.69
39435;BME280;30098;51.880;-0.518;2022-09-20T13:59:41;101664.41;;;22.64;38.36
39435;BME280;30098;51.880;-0.518;2022-09-20T14:02:31;101658.91;;;22.64;38.33
39435;BME280;30098;51.880;-0.518;2022-09-20T14:05:02;101659.84;;;22.59;37.94
39435;BME280;30098;51.880;-0.518;2022-09-20T14:07:28;101660.13;;;22.58;37.94
39435;BME280;30098;51.880;-0.518;2022-09-20T14:09:54;101652.69;;;22.58;37.96
39435;BME280;30098;51.880;-0.518;2022-09-20T14:12:22;101660.94;;;22.58;38.62
39435;BME280;30098;51.880;-0.518;2022-09-20T14:14:49;101654.34;;;22.59;38.53
39435;BME280;30098;51.880;-0.518;2022-09-20T14:17:17;101646.41;;;22.58;38.40
39435;BME280;30098;51.880;-0.518;2022-09-20T14:19:46;101647.81;;;22.55;37.83
39435;BME280;30098;51.880;-0.518;2022-09-20T14:22:18;101643.47;;;22.54;38.02
39435;BME280;30098;51.880;-0.518;2022-09-20T14:24:55;101638.88;;;22.49;37.75
39435;BME280;30098;51.880;-0.518;2022-09-20T14:27:21;101639.78;;;22.45;37.53
39435;BME280;30098;51.880;-0.518;2022-09-20T14:29:49;101619.72;;;22.30;37.68
39435;BME280;30098;51.880;-0.518;2022-09-20T14:32:27;101638.75;;;22.41;37.54
39435;BME280;30098;51.880;-0.518;2022-09-20T14:34:57;101639.06;;;22.39;37.82
39435;BME280;30098;51.880;-0.518;2022-09-20T14:42:49;101639.63;;;22.36;38.06
39435;BME280;30098;51.880;-0.518;2022-09-20T14:45:39;101640.25;;;22.33;38.13
39435;BME280;30098;51.880;-0.518;2022-09-20T14:50:38;101623.97;;;22.23;38.47
39435;BME280;30098;51.880;-0.518;2022-09-20T14:58:22;101637.00;;;22.31;38.67
39435;BME280;30098;51.880;-0.518;2022-09-20T15:00:54;101638.09;;;22.30;38.55
39435;BME280;30098;51.880;-0.518;2022-09-20T15:03:32;101640.84;;;22.30;38.75
39435;BME280;30098;51.880;-0.518;2022-09-20T15:05:58;101636.19;;;22.30;38.55
39435;BME280;30098;51.880;-0.518;2022-09-20T15:08:24;101640.66;;;22.26;38.59
39435;BME280;30098;51.880;-0.518;2022-09-20T15:10:51;101573.53;;;21.91;39.03
39435;BME280;30098;51.880;-0.518;2022-09-20T15:13:17;101632.41;;;22.26;38.95
39435;BME280;30098;51.880;-0.518;2022-09-20T15:15:42;101630.50;;;22.27;38.52
39435;BME280;30098;51.880;-0.518;2022-09-20T15:18:40;101627.75;;;22.27;38.47
39435;BME280;30098;51.880;-0.518;2022-09-20T15:21:06;101628.34;;;22.24;38.88
39435;BME280;30098;51.880;-0.518;2022-09-20T15:23:32;101620.63;;;22.26;38.80
39435;BME280;30098;51.880;-0.518;2022-09-20T15:25:58;101622.25;;;22.27;38.51
39435;BME280;30098;51.880;-0.518;2022-09-20T15:28:24;101622.53;;;22.25;38.53
39435;BME280;30098;51.880;-0.518;2022-09-20T15:30:51;101621.44;;;22.26;38.71
39435;BME280;30098;51.880;-0.518;2022-09-20T15:33:18;101623.91;;;22.28;38.86
39435;BME280;30098;51.880;-0.518;2022-09-20T15:35:44;101627.13;;;22.30;38.46
39435;BME280;30098;51.880;-0.518;2022-09-20T15:38:11;101620.00;;;22.29;38.44
39435;BME280;30098;51.880;-0.518;2022-09-20T15:40:38;101605.06;;;22.21;38.54
39435;BME280;30098;51.880;-0.518;2022-09-20T15:43:05;101607.22;;;22.24;38.30
39435;BME280;30098;51.880;-0.518;2022-09-20T15:45:34;101626.53;;;22.33;38.63
39435;BME280;30098;51.880;-0.518;2022-09-20T15:48:00;101619.63;;;22.35;38.45
39435;BME280;30098;51.880;-0.518;2022-09-20T15:50:27;101614.84;;;22.27;38.55
39435;BME280;30098;51.880;-0.518;2022-09-20T15:52:53;101621.25;;;22.36;38.40
39435;BME280;30098;51.880;-0.518;2022-09-20T15:55:19;101622.88;;;22.37;38.72
39435;BME280;30098;51.880;-0.518;2022-09-20T15:57:46;101599.69;;;22.30;38.45
39435;BME280;30098;51.880;-0.518;2022-09-20T16:00:14;101593.38;;;22.29;38.38
39435;BME280;30098;51.880;-0.518;2022-09-20T16:02:43;101619.84;;;22.39;38.13
39435;BME280;30098;51.880;-0.518;2022-09-20T16:05:09;101605.16;;;22.30;38.03
39435;BME280;30098;51.880;-0.518;2022-09-20T16:07:35;101610.66;;;22.30;37.93
39435;BME280;30098;51.880;-0.518;2022-09-20T16:10:01;101615.25;;;22.34;37.86
39435;BME280;30098;51.880;-0.518;2022-09-20T16:12:26;101607.22;;;22.24;37.95
39435;BME280;30098;51.880;-0.518;2022-09-20T16:14:52;101615.66;;;22.28;37.96
39435;BME280;30098;51.880;-0.518;2022-09-20T16:17:18;101611.06;;;22.23;37.70
39435;BME280;30098;51.880;-0.518;2022-09-20T16:20:04;101613.91;;;22.18;37.75
39435;BME280;30098;51.880;-0.518;2022-09-20T16:22:29;101615.84;;;22.17;37.76
39435;BME280;30098;51.880;-0.518;2022-09-20T16:24:58;101618.06;;;22.15;37.87
39435;BME280;30098;51.880;-0.518;2022-09-20T16:27:25;101612.38;;;22.12;37.89
39435;BME280;30098;51.880;-0.518;2022-09-20T16:29:50;101615.13;;;22.12;37.96
39435;BME280;30098;51.880;-0.518;2022-09-20T16:32:16;101619.81;;;22.11;38.21
39435;BME280;30098;51.880;-0.518;2022-09-20T16:34:41;101618.19;;;22.10;38.20
39435;BME280;30098;51.880;-0.518;2022-09-20T16:37:11;101614.41;;;22.06;37.82
39435;BME280;30098;51.880;-0.518;2022-09-20T16:39:40;101617.44;;;22.04;37.78
39435;BME280;30098;51.880;-0.518;2022-09-20T16:42:06;101610.94;;;22.00;38.00
39435;BME280;30098;51.880;-0.518;2022-09-20T16:44:35;101599.34;;;21.89;38.30
39435;BME280;30098;51.880;-0.518;2022-09-20T16:47:02;101619.50;;;21.99;38.04
39435;BME280;30098;51.880;-0.518;2022-09-20T16:49:27;101623.03;;;21.99;38.27
39435;BME280;30098;51.880;-0.518;2022-09-20T16:51:54;101624.97;;;21.99;38.01
39435;BME280;30098;51.880;-0.518;2022-09-20T16:54:20;101624.97;;;21.99;38.03
39435;BME280;30098;51.880;-0.518;2022-09-20T16:56:47;101620.59;;;21.98;38.19
39435;BME280;30098;51.880;-0.518;2022-09-20T16:59:14;101622.03;;;21.95;38.32
39435;BME280;30098;51.880;-0.518;2022-09-20T17:01:41;101617.94;;;21.93;38.36
39435;BME280;30098;51.880;-0.518;2022-09-20T17:04:08;101618.25;;;21.91;38.71
39435;BME280;30098;51.880;-0.518;2022-09-20T17:06:36;101620.78;;;21.87;38.61
39435;BME280;30098;51.880;-0.518;2022-09-20T17:09:03;101556.13;;;21.48;38.81
39435;BME280;30098;51.880;-0.518;2022-09-20T17:11:31;101623.81;;;21.86;38.68
39435;BME280;30098;51.880;-0.518;2022-09-20T17:13:58;101613.22;;;21.79;38.87
39435;BME280;30098;51.880;-0.518;2022-09-20T17:16:26;101624.41;;;21.83;38.81
39435;BME280;30098;51.880;-0.518;2022-09-20T17:18:53;101620.34;;;21.80;39.01
39435;BME280;30098;51.880;-0.518;2022-09-20T17:21:20;101609.53;;;21.70;38.98
39435;BME280;30098;51.880;-0.518;2022-09-20T17:23:47;101616.59;;;21.76;38.82
39435;BME280;30098;51.880;-0.518;2022-09-20T17:26:20;101618.19;;;21.77;39.06
39435;BME280;30098;51.880;-0.518;2022-09-20T17:28:48;101625.09;;;21.74;39.05
39435;BME280;30098;51.880;-0.518;2022-09-20T17:31:22;101619.63;;;21.74;39.06
39435;BME280;30098;51.880;-0.518;2022-09-20T17:33:50;101627.34;;;21.72;39.13
39435;BME280;30098;51.880;-0.518;2022-09-20T17:36:17;101627.94;;;21.69;39.05
39435;BME280;30098;51.880;-0.518;2022-09-20T17:38:52;101635.34;;;21.69;39.05
39435;BME280;30098;51.880;-0.518;2022-09-20T17:41:19;101619.88;;;21.59;39.16
39435;BME280;30098;51.880;-0.518;2022-09-20T17:43:45;101632.41;;;21.65;39.12
39435;BME280;30098;51.880;-0.518;2022-09-20T17:46:13;101633.78;;;21.63;39.21
39435;BME280;30098;51.880;-0.518;2022-09-20T17:48:39;101574.63;;;21.23;39.18